createdAt,value
2022-10-01T00:02:28.016Z,8.37
2022-10-01T00:05:14.860Z,8.46
2022-10-01T00:08:01.625Z,7.79
2022-10-01T00:10:48.434Z,7.93
2022-10-01T00:13:36.364Z,8.21
2022-10-01T00:16:25.614Z,8.26
2022-10-01T00:19:14.736Z,8.31
2022-10-01T00:22:01.713Z,8.39
2022-10-01T00:24:49.395Z,8.40
2022-10-01T00:27:36.595Z,8.40
2022-10-01T00:30:23.348Z,8.33
2022-10-01T00:33:10.135Z,8.14
2022-10-01T00:35:56.966Z,8.22
2022-10-01T00:38:44.417Z,8.26
2022-10-01T00:41:34.779Z,8.34
2022-10-01T00:44:36.961Z,8.19
2022-10-01T00:47:46.916Z,8.21
2022-10-01T00:50:34.959Z,8.20
2022-10-01T00:53:22.247Z,8.22
2022-10-01T00:56:09.031Z,8.06
2022-10-01T00:58:56.068Z,8.15
2022-10-01T01:01:43.109Z,8.02
2022-10-01T01:04:29.951Z,8.12
2022-10-01T01:07:16.918Z,8.08
2022-10-01T01:10:05.192Z,8.03
2022-10-01T01:13:11.793Z,7.92
2022-10-01T01:16:09.125Z,7.91
2022-10-01T01:19:02.595Z,8.02
2022-10-01T01:21:55.436Z,7.64
2022-10-01T01:24:49.886Z,7.80
2022-10-01T01:27:42.358Z,7.47
2022-10-01T01:30:32.846Z,7.58
2022-10-01T01:33:26.354Z,7.61
2022-10-01T01:36:18.536Z,7.80
2022-10-01T01:39:09.817Z,7.85
2022-10-01T01:42:01.000Z,7.95
2022-10-01T01:44:49.827Z,8.00
2022-10-01T01:47:42.084Z,8.05
2022-10-01T01:50:38.278Z,7.93
2022-10-01T01:53:26.152Z,7.89
2022-10-01T01:56:14.110Z,7.88
2022-10-01T01:59:01.125Z,7.82
2022-10-01T02:01:49.334Z,7.82
2022-10-01T02:04:49.206Z,7.69
2022-10-01T02:07:46.111Z,7.72
2022-10-01T02:10:59.331Z,7.47
2022-10-01T02:14:00.025Z,7.48
2022-10-01T02:16:56.206Z,7.71
2022-10-01T02:19:56.243Z,7.63
2022-10-01T02:22:52.753Z,7.43
2022-10-01T02:25:48.443Z,7.58
2022-10-01T02:28:39.272Z,7.65
2022-10-01T02:31:30.473Z,7.60
2022-10-01T02:34:01.083Z,7.54
2022-10-01T02:36:30.759Z,7.50
2022-10-01T02:39:00.362Z,7.28
2022-10-01T02:41:33.424Z,7.28
2022-10-01T02:44:11.636Z,7.27
2022-10-01T02:46:51.647Z,7.18
2022-10-01T02:49:18.739Z,7.26
2022-10-01T02:51:56.314Z,7.22
2022-10-01T02:54:29.497Z,7.50
2022-10-01T02:57:15.374Z,7.55
2022-10-01T02:59:41.890Z,7.65
2022-10-01T03:02:11.236Z,7.66
2022-10-01T03:04:38.432Z,7.59
2022-10-01T03:07:07.423Z,7.65
2022-10-01T03:09:35.035Z,7.72
2022-10-01T03:12:01.833Z,7.78
2022-10-01T03:14:32.305Z,7.76
2022-10-01T03:16:58.770Z,7.66
2022-10-01T03:19:25.415Z,7.38
2022-10-01T03:21:51.875Z,7.43
2022-10-01T03:24:18.368Z,7.55
2022-10-01T03:26:45.170Z,7.50
2022-10-01T03:29:15.066Z,7.53
2022-10-01T03:31:41.580Z,7.36
2022-10-01T03:34:13.235Z,7.46
2022-10-01T03:36:39.717Z,7.17
2022-10-01T03:39:06.227Z,7.41
2022-10-01T03:41:33.840Z,7.65
2022-10-01T03:44:02.999Z,7.52
2022-10-01T03:46:30.510Z,7.58
2022-10-01T03:49:00.859Z,7.37
2022-10-01T03:51:29.210Z,7.52
2022-10-01T03:53:57.316Z,7.56
2022-10-01T03:56:24.706Z,7.46
2022-10-01T03:58:51.597Z,7.41
2022-10-01T04:01:22.842Z,7.60
2022-10-01T04:03:50.253Z,7.64
2022-10-01T04:06:21.406Z,7.32
2022-10-01T04:08:48.156Z,7.44
2022-10-01T04:11:17.118Z,7.44
2022-10-01T04:13:43.604Z,7.28
2022-10-01T04:16:12.639Z,7.42
2022-10-01T04:18:39.338Z,7.37
2022-10-01T04:21:05.934Z,7.46
2022-10-01T04:23:32.380Z,7.58
2022-10-01T04:26:02.316Z,7.92
2022-10-01T04:28:30.483Z,8.13
2022-10-01T04:31:17.222Z,7.92
2022-10-01T04:33:44.052Z,8.10
2022-10-01T04:36:10.573Z,8.10
2022-10-01T04:38:37.026Z,8.13
2022-10-01T04:41:03.532Z,7.86
2022-10-01T04:43:29.937Z,8.09
2022-10-01T04:45:58.777Z,8.23
2022-10-01T04:48:25.193Z,8.27
2022-10-01T04:50:51.876Z,8.29
2022-10-01T04:53:18.586Z,8.23
2022-10-01T04:55:47.110Z,8.26
2022-10-01T04:58:13.649Z,8.32
2022-10-01T05:00:43.296Z,8.33
2022-10-01T05:03:12.132Z,8.37
2022-10-01T05:05:38.896Z,8.37
2022-10-01T05:08:08.572Z,8.25
2022-10-01T05:10:37.379Z,8.30
2022-10-01T05:13:03.798Z,8.31
2022-10-01T05:15:30.807Z,8.35
2022-10-01T05:17:57.500Z,8.35
2022-10-01T05:20:26.095Z,8.39
2022-10-01T05:22:56.369Z,8.41
2022-10-01T05:25:23.200Z,8.25
2022-10-01T05:27:51.887Z,8.38
2022-10-01T05:30:23.827Z,8.30
2022-10-01T05:32:56.002Z,8.48
2022-10-01T05:35:22.466Z,8.48
2022-10-01T05:37:58.558Z,8.44
2022-10-01T05:40:27.515Z,8.52
2022-10-01T05:42:55.638Z,8.55
2022-10-01T05:45:25.277Z,8.64
2022-10-01T05:48:06.030Z,8.66
2022-10-01T05:50:39.109Z,8.71
2022-10-01T05:53:06.673Z,8.71
2022-10-01T05:55:36.719Z,8.70
2022-10-01T05:58:05.709Z,8.66
2022-10-01T06:00:34.072Z,8.58
2022-10-01T06:03:02.291Z,8.74
2022-10-01T06:05:32.599Z,8.66
2022-10-01T06:07:59.333Z,8.79
2022-10-01T06:10:28.104Z,8.96
2022-10-01T06:13:01.011Z,8.94
2022-10-01T06:15:31.797Z,9.09
2022-10-01T06:18:02.114Z,9.15
2022-10-01T06:20:28.578Z,9.14
2022-10-01T06:22:56.933Z,9.09
2022-10-01T06:25:29.587Z,8.82
2022-10-01T06:27:57.935Z,8.83
2022-10-01T06:30:27.147Z,8.77
2022-10-01T06:32:59.308Z,8.85
2022-10-01T06:35:25.757Z,8.83
2022-10-01T06:37:52.187Z,8.98
2022-10-01T06:40:18.595Z,9.01
2022-10-01T06:42:50.284Z,8.96
2022-10-01T06:45:18.115Z,8.97
2022-10-01T06:47:44.933Z,9.07
2022-10-01T06:50:11.560Z,9.22
2022-10-01T06:52:49.846Z,9.41
2022-10-01T06:55:20.368Z,9.35
2022-10-01T06:57:47.530Z,9.50
2022-10-01T07:00:14.936Z,9.35
2022-10-01T07:02:42.541Z,9.29
2022-10-01T07:05:12.454Z,9.38
2022-10-01T07:07:39.102Z,9.48
2022-10-01T07:10:08.335Z,9.49
2022-10-01T07:12:36.008Z,9.60
2022-10-01T07:15:02.760Z,9.43
2022-10-01T07:17:29.207Z,9.58
2022-10-01T07:19:55.629Z,9.37
2022-10-01T07:22:24.099Z,9.38
2022-10-01T07:24:51.519Z,9.41
2022-10-01T07:27:19.709Z,9.28
2022-10-01T07:29:48.395Z,9.42
2022-10-01T07:32:15.696Z,9.62
2022-10-01T07:34:42.456Z,9.49
2022-10-01T07:37:09.766Z,9.77
2022-10-01T07:39:39.670Z,9.49
2022-10-01T07:42:06.550Z,9.53
2022-10-01T07:44:33.154Z,9.78
2022-10-01T07:47:02.700Z,9.65
2022-10-01T07:49:31.360Z,9.75
2022-10-01T07:52:00.032Z,9.98
2022-10-01T07:54:26.711Z,9.75
2022-10-01T07:56:56.454Z,9.91
2022-10-01T07:59:23.419Z,9.90
2022-10-01T08:01:53.517Z,10.04
2022-10-01T08:04:41.715Z,10.14
2022-10-01T08:07:08.669Z,10.09
2022-10-01T08:09:35.532Z,9.78
2022-10-01T08:12:04.821Z,10.03
2022-10-01T08:14:33.561Z,10.22
2022-10-01T08:17:04.986Z,10.30
2022-10-01T08:19:31.737Z,10.27
2022-10-01T08:21:58.175Z,10.32
2022-10-01T08:24:24.867Z,10.23
2022-10-01T08:26:56.339Z,10.01
2022-10-01T08:29:22.886Z,9.90
2022-10-01T08:31:50.126Z,9.96
2022-10-01T08:34:16.752Z,10.15
2022-10-01T08:36:43.213Z,10.22
2022-10-01T08:39:10.951Z,10.11
2022-10-01T08:41:55.983Z,9.96
2022-10-01T08:44:44.227Z,9.92
2022-10-01T08:47:17.089Z,10.07
2022-10-01T08:49:51.667Z,10.10
2022-10-01T08:52:44.144Z,10.13
2022-10-01T08:55:18.527Z,10.02
2022-10-01T08:57:53.369Z,10.27
2022-10-01T09:00:20.090Z,10.24
2022-10-01T09:02:47.725Z,10.07
2022-10-01T09:05:23.546Z,10.19
2022-10-01T09:08:05.129Z,10.32
2022-10-01T09:10:49.484Z,10.27
2022-10-01T09:13:30.877Z,9.90
2022-10-01T09:16:24.129Z,10.03
2022-10-01T09:19:18.620Z,9.83
2022-10-01T09:21:55.578Z,9.95
2022-10-01T09:24:25.727Z,9.95
2022-10-01T09:26:57.073Z,9.97
2022-10-01T09:29:29.885Z,10.04
2022-10-01T09:31:58.612Z,9.94
2022-10-01T09:34:44.748Z,10.16
2022-10-01T09:37:18.158Z,10.32
2022-10-01T09:40:05.785Z,10.52
2022-10-01T09:42:32.546Z,10.45
2022-10-01T09:44:59.536Z,10.42
2022-10-01T09:47:26.492Z,10.15
2022-10-01T09:49:53.000Z,10.27
2022-10-01T09:52:28.210Z,10.20
2022-10-01T09:55:34.044Z,10.40
2022-10-01T09:58:09.618Z,10.51
2022-10-01T10:00:37.661Z,10.52
2022-10-01T10:03:07.313Z,10.32
2022-10-01T10:05:54.905Z,10.45
2022-10-01T10:08:31.883Z,10.61
2022-10-01T10:11:08.236Z,10.64
2022-10-01T10:13:48.931Z,10.75
2022-10-01T10:16:30.041Z,10.70
2022-10-01T10:19:02.163Z,10.82
2022-10-01T10:21:34.743Z,10.84
2022-10-01T10:24:04.266Z,10.88
2022-10-01T10:26:51.367Z,10.96
2022-10-01T10:29:30.419Z,11.10
2022-10-01T10:32:03.491Z,11.00
2022-10-01T10:34:34.343Z,10.97
2022-10-01T10:37:05.631Z,11.19
2022-10-01T10:39:39.440Z,11.32
2022-10-01T10:42:07.364Z,11.45
2022-10-01T10:44:39.693Z,11.46
2022-10-01T10:47:13.513Z,11.54
2022-10-01T10:50:06.893Z,11.57
2022-10-01T10:52:36.154Z,11.43
2022-10-01T10:55:28.866Z,11.39
2022-10-01T10:57:57.988Z,11.40
2022-10-01T11:00:26.321Z,11.43
2022-10-01T11:02:58.139Z,11.56
2022-10-01T11:05:29.974Z,11.54
2022-10-01T11:07:59.776Z,11.44
2022-10-01T11:10:44.564Z,11.50
2022-10-01T11:13:33.414Z,11.52
2022-10-01T11:16:44.101Z,11.49
2022-10-01T11:19:13.462Z,11.48
2022-10-01T11:21:56.627Z,11.52
2022-10-01T11:25:01.053Z,11.60
2022-10-01T11:27:45.097Z,11.67
2022-10-01T11:30:27.567Z,11.68
2022-10-01T11:33:31.777Z,11.81
2022-10-01T11:36:45.648Z,11.97
2022-10-01T11:39:17.643Z,11.99
2022-10-01T11:41:49.750Z,12.05
2022-10-01T11:44:24.235Z,12.07
2022-10-01T11:46:54.227Z,12.18
2022-10-01T11:49:35.510Z,12.22
2022-10-01T11:52:18.888Z,12.30
2022-10-01T11:54:56.362Z,12.33
2022-10-01T11:57:42.319Z,12.40
2022-10-01T12:00:12.907Z,12.31
2022-10-01T12:02:52.555Z,12.40
2022-10-01T12:05:24.672Z,12.53
2022-10-01T12:08:01.537Z,12.54
2022-10-01T12:10:39.198Z,12.62
2022-10-01T12:13:22.637Z,12.78
2022-10-01T12:15:55.165Z,12.67
2022-10-01T12:18:32.951Z,12.63
2022-10-01T12:21:03.738Z,12.59
2022-10-01T12:23:43.963Z,12.55
2022-10-01T12:26:41.286Z,12.74
2022-10-01T12:29:16.940Z,12.96
2022-10-01T12:31:57.028Z,13.34
2022-10-01T12:34:53.868Z,13.96
2022-10-01T12:37:39.393Z,13.70
2022-10-01T12:40:38.426Z,13.55
2022-10-01T12:43:27.523Z,13.39
2022-10-01T12:46:21.009Z,13.47
2022-10-01T12:48:57.894Z,13.52
2022-10-01T12:51:44.596Z,13.55
2022-10-01T12:54:55.533Z,13.55
2022-10-01T12:57:47.488Z,13.70
2022-10-01T13:00:20.446Z,13.73
2022-10-01T13:03:05.674Z,13.48
2022-10-01T13:05:38.393Z,13.47
2022-10-01T13:08:17.221Z,13.56
2022-10-01T13:10:43.635Z,13.50
2022-10-01T13:13:22.015Z,13.76
2022-10-01T13:16:12.736Z,13.69
2022-10-01T13:19:14.433Z,13.69
2022-10-01T13:21:47.022Z,13.50
2022-10-01T13:24:44.283Z,13.49
2022-10-01T13:27:27.014Z,13.40
2022-10-01T13:30:20.596Z,13.41
2022-10-01T13:33:01.070Z,13.37
2022-10-01T13:35:39.771Z,13.42
2022-10-01T13:38:30.978Z,13.40
2022-10-01T13:41:01.336Z,13.41
2022-10-01T13:43:30.270Z,13.37
2022-10-01T13:46:07.040Z,13.40
2022-10-01T13:48:35.818Z,13.52
2022-10-01T13:51:07.120Z,13.47
2022-10-01T13:53:40.880Z,13.47
2022-10-01T13:56:09.340Z,13.43
2022-10-01T13:58:41.236Z,13.48
2022-10-01T14:01:32.508Z,13.55
2022-10-01T14:04:15.873Z,13.59
2022-10-01T14:06:50.236Z,13.56
2022-10-01T14:09:23.174Z,13.59
2022-10-01T14:12:14.485Z,13.48
2022-10-01T14:15:07.569Z,13.48
2022-10-01T14:17:36.140Z,13.51
2022-10-01T14:20:03.316Z,13.49
2022-10-01T14:22:44.710Z,13.59
2022-10-01T14:25:20.820Z,13.58
2022-10-01T14:27:56.540Z,13.61
2022-10-01T14:31:08.551Z,13.54
2022-10-01T14:33:46.992Z,13.60
2022-10-01T14:36:18.718Z,13.63
2022-10-01T14:38:45.585Z,13.61
2022-10-01T14:41:19.877Z,13.56
2022-10-01T14:43:46.647Z,13.56
2022-10-01T14:46:17.238Z,13.60
2022-10-01T14:48:44.702Z,13.62
2022-10-01T14:51:24.558Z,13.68
2022-10-01T14:53:52.584Z,13.80
2022-10-01T14:56:20.382Z,14.03
2022-10-01T14:58:53.144Z,14.15
2022-10-01T15:01:21.452Z,14.20
2022-10-01T15:03:49.494Z,14.26
2022-10-01T15:09:12.435Z,14.35
2022-10-01T15:11:46.578Z,14.35
2022-10-01T15:14:18.975Z,14.31
2022-10-01T15:16:45.946Z,14.28
2022-10-01T15:19:16.319Z,14.23
2022-10-01T15:21:54.863Z,14.25
2022-10-01T15:24:42.222Z,14.35
2022-10-01T15:27:15.597Z,14.40
2022-10-01T15:29:51.535Z,14.35
2022-10-01T15:32:23.580Z,14.38
2022-10-01T15:34:54.732Z,14.46
2022-10-01T15:37:37.952Z,14.48
2022-10-01T15:40:19.908Z,14.53
2022-10-01T15:43:07.279Z,14.58
2022-10-01T15:45:34.564Z,14.47
2022-10-01T15:48:03.527Z,14.41
2022-10-01T15:50:36.358Z,14.33
2022-10-01T15:53:10.067Z,14.36
2022-10-01T15:55:47.599Z,14.34
2022-10-01T15:58:21.282Z,14.30
2022-10-01T16:00:48.611Z,14.30
2022-10-01T16:03:23.250Z,14.28
2022-10-01T16:05:54.837Z,14.16
2022-10-01T16:08:25.457Z,14.17
2022-10-01T16:11:31.882Z,14.13
2022-10-01T16:14:31.905Z,14.01
2022-10-01T16:17:16.647Z,14.06
2022-10-01T16:19:43.827Z,14.02
2022-10-01T16:22:19.246Z,14.11
2022-10-01T16:24:48.727Z,14.15
2022-10-01T16:27:46.182Z,14.13
2022-10-01T16:30:26.901Z,14.06
2022-10-01T16:33:02.359Z,14.07
2022-10-01T16:35:35.942Z,14.06
2022-10-01T16:38:09.027Z,13.96
2022-10-01T16:40:43.711Z,13.98
2022-10-01T16:43:19.831Z,13.98
2022-10-01T16:45:46.434Z,13.96
2022-10-01T16:48:19.512Z,13.90
2022-10-01T16:50:53.592Z,13.87
2022-10-01T16:53:20.177Z,13.90
2022-10-01T16:55:47.096Z,13.84
2022-10-01T16:58:16.929Z,13.90
2022-10-01T17:00:48.271Z,13.96
2022-10-01T17:03:18.052Z,13.79
2022-10-01T17:06:03.800Z,13.89
2022-10-01T17:08:50.633Z,13.90
2022-10-01T17:11:38.792Z,13.81
2022-10-01T17:14:25.642Z,13.88
2022-10-01T17:17:12.393Z,13.88
2022-10-01T17:19:59.176Z,13.86
2022-10-01T17:22:46.096Z,13.87
2022-10-01T17:25:35.695Z,13.90
2022-10-01T17:28:23.907Z,13.93
2022-10-01T17:31:15.547Z,13.88
2022-10-01T17:34:05.010Z,13.89
2022-10-01T17:36:51.809Z,13.88
2022-10-01T17:39:39.522Z,13.89
2022-10-01T17:42:26.292Z,13.88
2022-10-01T17:45:14.302Z,13.92
2022-10-01T17:48:01.600Z,13.86
2022-10-01T17:50:48.443Z,13.84
2022-10-01T17:53:42.128Z,13.77
2022-10-01T17:56:32.453Z,13.83
2022-10-01T17:59:22.200Z,13.90
2022-10-01T18:02:36.655Z,13.91
2022-10-01T18:05:19.434Z,13.94
2022-10-01T18:08:06.180Z,13.88
2022-10-01T18:11:08.851Z,13.92
2022-10-01T18:13:55.840Z,13.98
2022-10-01T18:16:42.723Z,13.95
2022-10-01T18:19:52.881Z,13.97
2022-10-01T18:22:37.983Z,13.92
2022-10-01T18:25:25.199Z,13.88
2022-10-01T18:28:12.063Z,13.88
2022-10-01T18:31:11.245Z,13.96
2022-10-01T18:34:00.966Z,13.95
2022-10-01T18:37:14.661Z,13.98
2022-10-01T18:40:12.455Z,13.90
2022-10-01T18:43:20.769Z,13.93
2022-10-01T18:46:22.858Z,13.93
2022-10-01T18:49:31.448Z,13.95
2022-10-01T18:52:34.898Z,13.92
2022-10-01T18:55:48.605Z,13.96
2022-10-01T18:59:01.371Z,13.96
2022-10-01T19:02:12.921Z,13.99
2022-10-01T19:05:18.771Z,13.98
2022-10-01T19:08:42.179Z,13.97
2022-10-01T19:11:34.347Z,13.97
2022-10-01T19:14:39.890Z,13.85
2022-10-01T19:18:03.216Z,13.94
2022-10-01T19:21:13.855Z,13.94
2022-10-01T19:24:19.085Z,13.86
2022-10-01T19:27:42.306Z,13.96
2022-10-01T19:31:01.637Z,13.99
2022-10-01T19:34:32.125Z,13.94
2022-10-01T19:37:36.590Z,13.99
2022-10-01T19:40:30.120Z,13.95
2022-10-01T19:43:33.154Z,14.09
2022-10-01T19:46:26.474Z,14.06
2022-10-01T19:49:17.259Z,14.01
2022-10-01T19:52:12.395Z,14.06
2022-10-01T19:55:00.697Z,14.09
2022-10-01T19:57:47.747Z,14.10
2022-10-01T20:00:34.640Z,14.09
2022-10-01T20:03:31.920Z,13.99
2022-10-01T20:06:30.568Z,14.01
2022-10-01T20:09:17.499Z,14.01
2022-10-01T20:12:17.022Z,14.04
2022-10-01T20:15:45.200Z,14.05
2022-10-01T20:18:38.502Z,14.05
2022-10-01T20:21:46.694Z,13.95
2022-10-01T20:24:43.282Z,13.92
2022-10-01T20:27:47.083Z,14.09
2022-10-01T20:31:05.305Z,14.03
2022-10-01T20:34:10.236Z,14.09
2022-10-01T20:37:11.718Z,14.18
2022-10-01T20:40:07.462Z,14.03
2022-10-01T20:43:05.971Z,14.01
2022-10-01T20:45:53.925Z,13.99
2022-10-01T20:48:52.326Z,14.04
2022-10-01T20:51:52.931Z,14.11
2022-10-01T20:54:46.114Z,14.10
2022-10-01T20:57:38.913Z,14.22
2022-10-01T21:00:28.079Z,14.05
2022-10-01T21:03:26.080Z,14.18
2022-10-01T21:06:26.479Z,14.22
2022-10-01T21:09:28.506Z,14.22
2022-10-01T21:12:24.893Z,14.12
2022-10-01T21:15:14.445Z,14.19
2022-10-01T21:18:44.241Z,14.18
2022-10-01T21:21:52.317Z,14.16
2022-10-01T21:25:10.454Z,14.14
2022-10-01T21:28:06.224Z,14.12
2022-10-01T21:31:08.158Z,14.20
2022-10-01T21:34:20.493Z,14.19
2022-10-01T21:37:33.299Z,14.24
2022-10-01T21:40:34.524Z,14.20
2022-10-01T21:43:59.897Z,14.14
2022-10-01T21:47:05.382Z,14.11
2022-10-01T21:50:27.808Z,14.03
2022-10-01T21:53:20.500Z,13.99
2022-10-01T21:57:05.079Z,13.93
2022-10-01T22:00:11.913Z,13.88
2022-10-01T22:03:10.441Z,13.89
2022-10-01T22:06:03.228Z,13.86
2022-10-01T22:08:57.023Z,13.81
2022-10-01T22:11:50.957Z,13.80
2022-10-01T22:14:41.321Z,13.76
2022-10-01T22:17:33.570Z,13.73
2022-10-01T22:20:26.869Z,13.64
2022-10-01T22:23:20.615Z,13.48
2022-10-01T22:26:18.059Z,13.54
2022-10-01T22:29:10.860Z,13.51
2022-10-01T22:32:02.892Z,13.49
2022-10-01T22:35:01.079Z,13.49
2022-10-01T22:38:02.776Z,13.54
2022-10-01T22:41:22.265Z,13.44
2022-10-01T22:44:18.719Z,13.44
2022-10-01T22:47:25.659Z,13.50
2022-10-01T22:50:27.175Z,13.50
2022-10-01T22:53:40.490Z,13.54
2022-10-01T22:56:43.938Z,13.43
2022-10-01T23:00:01.788Z,13.46
2022-10-01T23:02:59.021Z,13.35
2022-10-01T23:06:13.062Z,13.30
2022-10-01T23:09:18.362Z,13.25
2022-10-01T23:12:15.171Z,13.21
2022-10-01T23:15:11.072Z,13.18
2022-10-01T23:18:00.530Z,13.15
2022-10-01T23:21:09.785Z,13.13
2022-10-01T23:24:04.883Z,13.06
2022-10-01T23:27:19.280Z,12.98
2022-10-01T23:30:15.346Z,13.00
2022-10-01T23:33:20.240Z,12.91
2022-10-01T23:36:19.129Z,12.84
2022-10-01T23:39:24.459Z,12.94
2022-10-01T23:42:24.041Z,12.86
2022-10-01T23:45:26.192Z,12.91
2022-10-01T23:48:40.879Z,12.97
2022-10-01T23:51:38.777Z,12.96
2022-10-01T23:54:32.960Z,12.85
2022-10-01T23:57:31.717Z,12.88
